< < Back
Terminal Aerodrome Forecast


Current Version              Previous Versions:   1  2  3  4  5  6  7  8  9  

Terminal Aerodrome Forecast

548
FTUS42 KJAX 200500
TAFGNV
TAF
KGNV 200520Z 2006/2106 26008KT P6SM SCT250
      TEMPO 2008/2011 5SM BR
     FM201300 28009KT P6SM SCT030
     FM201900 27008KT P6SM VCTS SCT050CB
     FM210100 24004KT P6SM FEW100 SCT250=

Latest METAR

528
SAUS70 KWBC 201400 RRA
MTRGNV
METAR KGNV 201353Z 30009KT 10SM FEW021 29/24 A3009 RMK AO2 SLP184
T02940244


USA.gov is the U.S. government's official web portal to all federal, state and local government web resources and services.